• Join FlightAware (Why Join?)
  • Login
  • US Flag 
Trick or treat! (Boo!!) 
12:27PM EDT


 

Airport Tracker/Info


-or-


 

Live Flight TrackerFlight Track Log ✈ SWA3313 ✈ 25-Apr-2013 ✈ KBWI - KCLT

Flight Track Log - Related Links

Times and Time Zones

All times are in EDT time to prevent confusion due to time zone crossing. See the SWA3313 flight status page for this flight to view local times or setup timezone preferences in your user account.

Time Position Orientation Groundspeed Altitude Reporting Facility
EDT Latitude Longitude Course Direction KTS MPH feet Rate Location/Type
08:25PM 39.1833 -76.7167 211° Southwest 171 197 1,700  Level Potomac TRACON
08:26PM 39.1833 -76.7833 270° West 228 262 3,600 2,580 Climbing Potomac TRACON
08:27PM 39.2000 -76.8833 282° West 256 295 6,900 3,840 Climbing Potomac TRACON
08:28PM 39.2167 -76.9667 284° West 248 285 11,300 3,120 Climbing Potomac TRACON
08:29PM 39.2167 -77.0667 270° West 313 360 13,200 2,580 Climbing Potomac TRACON
08:30PM 39.1833 -77.1833 250° West 349 402 16,600 3,240 Climbing Potomac TRACON
08:31PM 39.0647 -77.2590 211° Southwest  Level FlightAware Approximate
08:31PM 39.0833 -77.2500 207° Southwest 351 404 20,100  Level Potomac TRACON
08:32PM 39.0167 -77.3167 218° Southwest 369 425 22,300 1,140 Climbing Potomac TRACON
08:34PM 38.7853 -77.3839 193° South 421 484 23,800 1,320 Climbing Washington Center
08:35PM 38.6808 -77.4081 190° South 403 464 26,800 1,680 Climbing Washington Center
08:37PM 38.4936 -77.5122 204° Southwest 361 415 29,000 1,320 Climbing Washington Center
08:38PM 38.4008 -77.5733 207° Southwest 366 421 30,800 1,500 Climbing Washington Center
08:39PM 38.3325 -77.6669 227° Southwest 366 421 32,000 600 Climbing Washington Center
08:40PM 38.2619 -77.7758 230° Southwest 366 421 32,000  Level Washington Center
08:41PM 38.1994 -77.8719 230° Southwest 366 421 32,000  Level Washington Center
08:42PM 38.1328 -77.9756 231° Southwest 371 427 32,000  Level Washington Center
08:43PM 38.0683 -78.0736 230° Southwest 371 427 32,000  Level Washington Center
08:44PM 38.0039 -78.1664 229° Southwest 371 427 32,000  Level Washington Center
08:45PM 37.9478 -78.2567 232° Southwest 366 421 32,000  Level Washington Center
08:46PM 37.8808 -78.3542 229° Southwest 366 421 32,000  Level Washington Center
08:47PM 37.8053 -78.4619 228° Southwest 376 433 32,000  Level Washington Center
08:48PM 37.7361 -78.5564 227° Southwest 376 433 32,000  Level Washington Center
08:49PM 37.6692 -78.6536 229° Southwest 376 433 32,000  Level Washington Center
08:50PM 37.6019 -78.7506 229° Southwest 370 426 32,000  Level Washington Center
08:51PM 37.5414 -78.8317 227° Southwest 370 426 32,000  Level Washington Center
08:52PM 37.4739 -78.9308 229° Southwest 370 426 32,000  Level Washington Center
08:53PM 37.4044 -79.0247 227° Southwest 370 426 32,000  Level Washington Center
08:54PM 37.3372 -79.1208 229° Southwest 370 426 32,000  Level Washington Center
08:55PM 37.2675 -79.2142 227° Southwest 370 426 32,000  Level Washington Center
08:56PM 37.1708 -79.3033 216° Southwest 376 433 32,000  Level Washington Center
08:57PM 37.0789 -79.3797 214° Southwest 395 455 32,000  Level Washington Center
08:58PM 36.9867 -79.4583 214° Southwest 401 461 32,000  Level Washington Center
08:59PM 36.8944 -79.5344 213° Southwest 406 467 32,000  Level Washington Center
09:00PM 36.8022 -79.6100 213° Southwest 406 467 32,000 -120 Level Washington Center
09:01PM 36.7186 -79.6783 213° Southwest 406 467 31,800 -1,140 Descending Washington Center
09:02PM 36.6156 -79.7608 213° Southwest 403 464 29,700 -2,280 Descending Atlanta Center
09:03PM 36.5306 -79.8300 213° Southwest 398 458 27,200 -2,400 Descending Atlanta Center
09:04PM 36.4472 -79.8964 213° Southwest 377 434 25,000 -2,100 Descending Atlanta Center
09:05PM 36.3661 -79.9625 213° Southwest 367 422 23,000 -1,500 Descending Atlanta Center
09:06PM 36.2847 -80.0283 213° Southwest 362 417 22,000 -540 Descending Atlanta Center
09:07PM 36.2097 -80.0939 215° Southwest 362 417 22,000 -840 Level Atlanta Center
09:08PM 36.1306 -80.1594 214° Southwest 362 417 20,400 -1,800 Descending Atlanta Center
09:09PM 36.0514 -80.2300 216° Southwest 362 417 18,400 -1,920 Descending Atlanta Center
09:10PM 35.9742 -80.2953 214° Southwest 357 411 16,600 -2,160 Descending Atlanta Center
09:11PM 35.9092 -80.3547 217° Southwest 336 387 14,700 -2,220 Descending Atlanta Center
09:11PM 35.8947 -80.3631 205° Southwest 348 400 14,400 -1,980 Descending Atlanta Center
09:12PM 35.8725 -80.3844 218° Southwest 333 383 13,700 -1,320 Descending Atlanta Center
09:12PM 35.8236 -80.4250 214° Southwest 343 395 13,100 -720 Descending Atlanta Center
09:13PM 35.8033 -80.4439 217° Southwest 310 357 13,000 -120 Descending Atlanta Center
09:13PM 35.7583 -80.4792 212° Southwest 310 357 13,000  Level Atlanta Center
09:14PM 35.7319 -80.5058 219° Southwest 280 322 13,000 -900 Level Atlanta Center
09:14PM 35.6869 -80.5283 202° Southwest 292 336 12,100 -1,500 Descending Atlanta Center
09:15PM 35.6539 -80.5450 202° Southwest 298 343 11,500 -1,200 Descending Atlanta Center
09:15PM 35.6106 -80.5647 200° South 292 336 10,900 -840 Descending Atlanta Center
09:16PM 35.5778 -80.5839 205° Southwest 274 315 10,600 -840 Descending Atlanta Center
09:16PM 35.5342 -80.5908 187° South 280 322 10,100 -1,320 Descending Atlanta Center
09:17PM 35.5092 -80.5944 187° South 248 285 9,300 -1,620 Descending Atlanta Center
09:17PM 35.4656 -80.5989 185° South 269 310 8,500 -1,680 Descending Atlanta Center
09:18PM 35.4433 -80.6253 224° Southwest 234 269 7,600 -1,920 Descending Atlanta Center
09:18PM 35.4192 -80.6569 227° Southwest 233 268 6,600 -1,740 Descending Atlanta Center
09:19PM 35.4033 -80.6856 236° Southwest 236 272 5,900 -1,320 Descending Atlanta Center
09:19PM 35.3769 -80.7172 224° Southwest 239 275 5,300 -1,200 Descending Atlanta Center
09:20PM 35.3592 -80.7461 233° Southwest 229 264 4,700 -1,200 Descending Atlanta Center
09:20PM 35.3389 -80.7697 224° Southwest 223 257 4,100 -1,020 Descending Atlanta Center
09:21PM 35.3228 -80.7908 227° Southwest 178 205 3,700 -840 Descending Atlanta Center
09:22PM 35.2967 -80.8325 232° Southwest 154 177 2,900 -840 Descending Atlanta Center
09:23PM 35.2683 -80.8692 227° Southwest 140 161 2,100 -840 Descending Atlanta Center
09:24PM 35.2381 -80.9111 229° Southwest 146 168 1,300 -840 Descending Atlanta Center
09:26PM 35.2137 -80.9491 176° South  Level Estimated
09:33PM 35.2137 -80.9491 North  Level Estimated